Time;durP1;ratioP1;P1;durP2;ratioP2;P2;SDS_P1;SDS_P2;PMS_P1;PMS_P2;Temp;Humidity;BMP_temperature;BMP_pressure;BME280_temperature;BME280_humidity;BME280_pressure;Samples;Min_cycle;Max_cycle;Signal;HPM_P1;HPM_P2
2024/01/11 00:02:56;;;;;;;16.27;6.57;;;;;;;-5.33;100.00;103054.75;6253848;28;20457;-77
2024/01/11 00:05:57;;;;;;;19.60;7.07;;;;;;;-5.31;100.00;103054.06;6253227;28;20052;-77
2024/01/11 00:08:58;;;;;;;15.98;5.80;;;;;;;-5.29;100.00;103042.19;6253685;28;20354;-77
2024/01/11 00:12:00;;;;;;;17.90;5.50;;;;;;;-5.43;100.00;103046.63;6253670;28;20053;-77
2024/01/11 00:15:02;;;;;;;12.40;4.25;;;;;;;-5.48;100.00;103044.66;6253634;28;20057;-77
2024/01/11 00:18:04;;;;;;;20.10;5.38;;;;;;;-5.57;100.00;103046.75;6253693;28;20072;-77
2024/01/11 00:21:06;;;;;;;12.20;4.85;;;;;;;-5.64;100.00;103056.69;6253686;28;20076;-77
2024/01/11 00:24:07;;;;;;;8.70;4.70;;;;;;;-5.55;100.00;103057.94;6253164;28;20050;-78
2024/01/11 00:27:08;;;;;;;25.42;6.93;;;;;;;-5.62;100.00;103051.66;6253206;28;20054;-77
2024/01/11 00:30:11;;;;;;;14.07;4.88;;;;;;;-5.55;100.00;103040.91;6253915;28;20050;-77
2024/01/11 00:33:13;;;;;;;14.77;5.65;;;;;;;-5.61;100.00;103051.72;6252747;28;20049;-78
2024/01/11 00:36:18;;;;;;;12.82;4.82;;;;;;;-5.60;100.00;103052.59;6267139;28;20449;-77
2024/01/11 00:39:20;;;;;;;12.65;5.00;;;;;;;-5.55;100.00;103047.69;6266091;28;20132;-78
2024/01/11 00:42:21;;;;;;;18.30;5.38;;;;;;;-5.53;100.00;103041.00;6267600;28;20064;-77
2024/01/11 00:45:24;;;;;;;14.23;6.30;;;;;;;-5.65;100.00;103044.69;6257431;28;20053;-77
2024/01/11 00:48:25;;;;;;;15.73;7.55;;;;;;;-5.66;100.00;103052.31;6269067;28;20053;-77
2024/01/11 00:51:27;;;;;;;17.48;5.50;;;;;;;-5.75;100.00;103051.84;6278042;28;20056;-77
2024/01/11 00:54:28;;;;;;;15.63;4.82;;;;;;;-5.80;100.00;103050.72;6277443;28;20053;-77
2024/01/11 00:57:29;;;;;;;11.35;4.85;;;;;;;-5.76;100.00;103040.72;6277101;28;20045;-78
2024/01/11 01:00:32;;;;;;;16.55;5.43;;;;;;;-5.70;100.00;103035.03;6277548;28;20064;-78
2024/01/11 01:03:33;;;;;;;10.65;4.30;;;;;;;-5.67;100.00;103022.38;6270311;28;20057;-79
2024/01/11 01:06:35;;;;;;;14.45;5.65;;;;;;;-5.67;100.00;103023.25;6251681;28;20056;-78
2024/01/11 01:09:36;;;;;;;21.65;6.63;;;;;;;-5.62;100.00;103036.28;6252665;28;20049;-77
2024/01/11 01:12:37;;;;;;;12.65;5.13;;;;;;;-5.71;100.00;103021.34;6251898;28;20061;-77
2024/01/11 01:15:40;;;;;;;14.63;5.35;;;;;;;-5.71;100.00;103016.22;6251758;28;20053;-77
2024/01/11 01:18:41;;;;;;;11.00;4.38;;;;;;;-5.59;100.00;103028.72;6251949;28;20045;-77
2024/01/11 01:21:43;;;;;;;17.75;5.72;;;;;;;-5.60;100.00;103024.44;6252165;28;20045;-77
2024/01/11 01:24:44;;;;;;;12.65;5.05;;;;;;;-5.62;100.00;103024.38;6252035;28;20061;-79
2024/01/11 01:27:45;;;;;;;23.15;5.65;;;;;;;-5.66;100.00;103036.94;6251759;28;20053;-77
2024/01/11 01:30:48;;;;;;;17.90;6.72;;;;;;;-5.69;100.00;103029.97;6251840;28;20060;-78
2024/01/11 01:33:50;;;;;;;18.05;6.60;;;;;;;-5.63;100.00;103022.59;6251761;28;20054;-78
2024/01/11 01:36:51;;;;;;;11.05;4.15;;;;;;;-5.62;100.00;103037.16;6251102;28;20481;-78
2024/01/11 01:39:52;;;;;;;16.20;5.05;;;;;;;-5.66;100.00;103026.69;6251632;28;20045;-78
2024/01/11 01:42:59;;;;;;;16.75;5.63;;;;;;;-5.58;100.00;103045.00;6251508;28;20057;-78
2024/01/11 01:46:02;;;;;;;15.23;5.22;;;;;;;-5.61;100.00;103030.34;6248718;28;20101;-78
2024/01/11 01:49:04;;;;;;;13.20;5.43;;;;;;;-5.65;100.00;103023.31;6256861;28;20048;-78
2024/01/11 01:52:08;;;;;;;16.48;5.97;;;;;;;-5.65;100.00;103026.75;6259394;28;20049;-78
2024/01/11 01:55:11;;;;;;;24.90;4.63;;;;;;;-5.79;100.00;103022.63;6264065;28;20042;-78
2024/01/11 01:58:13;;;;;;;27.25;4.70;;;;;;;-5.73;100.00;103010.13;6266478;28;20041;-78
2024/01/11 02:01:16;;;;;;;15.63;6.30;;;;;;;-5.66;100.00;103012.19;6259654;28;20053;-78
2024/01/11 02:04:17;;;;;;;13.48;5.57;;;;;;;-5.67;100.00;102999.34;6256990;28;20045;-79
2024/01/11 02:07:19;;;;;;;14.93;5.85;;;;;;;-5.71;100.00;102999.97;6266710;28;20052;-77
2024/01/11 02:10:22;;;;;;;15.15;4.88;;;;;;;-5.74;100.00;103005.81;6275950;28;20060;-77
2024/01/11 02:13:24;;;;;;;12.75;5.03;;;;;;;-5.79;100.00;103011.53;6275437;28;20353;-77
2024/01/11 02:16:26;;;;;;;16.75;5.93;;;;;;;-5.81;100.00;103020.78;6275355;28;20055;-77
2024/01/11 02:19:28;;;;;;;17.80;6.68;;;;;;;-5.80;100.00;103013.19;6275441;28;20104;-78
2024/01/11 02:22:32;;;;;;;13.27;5.55;;;;;;;-5.80;100.00;103009.78;6275407;28;20045;-78
2024/01/11 02:25:35;;;;;;;12.48;5.35;;;;;;;-5.75;100.00;103004.06;6274966;28;20354;-78
2024/01/11 02:28:36;;;;;;;23.98;6.95;;;;;;;-5.68;100.00;103002.66;6275370;28;20357;-78
2024/01/11 02:31:38;;;;;;;20.45;6.65;;;;;;;-5.67;100.00;103002.78;6275512;28;20052;-78
2024/01/11 02:34:39;;;;;;;19.90;6.05;;;;;;;-5.74;100.00;102993.00;6262975;28;20061;-78
2024/01/11 02:37:41;;;;;;;16.42;6.18;;;;;;;-5.71;100.00;102993.19;6260701;28;20045;-78
2024/01/11 02:40:44;;;;;;;13.85;5.47;;;;;;;-5.71;100.00;102999.97;6266952;28;20049;-78
2024/01/11 02:43:48;;;;;;;14.93;6.30;;;;;;;-5.78;100.00;102996.22;6275298;28;20053;-78
2024/01/11 02:46:49;;;;;;;21.23;7.15;;;;;;;-5.81;100.00;102997.75;6264176;28;20445;-78
2024/01/11 02:49:51;;;;;;;9.15;5.38;;;;;;;-5.83;100.00;103020.72;6275190;28;20045;-78
2024/01/11 02:52:52;;;;;;;12.82;5.05;;;;;;;-5.91;100.00;103019.44;6304116;22;20518;-71
2024/01/11 02:55:55;;;;;;;16.15;5.93;;;;;;;-5.89;100.00;103018.75;6299732;28;20044;-71
2024/01/11 02:58:56;;;;;;;22.63;6.65;;;;;;;-5.85;100.00;103022.34;6277469;28;20055;-71
2024/01/11 03:01:57;;;;;;;12.73;5.53;;;;;;;-6.06;100.00;103013.59;6286869;28;20052;-70
2024/01/11 03:04:59;;;;;;;14.25;5.93;;;;;;;-6.03;100.00;103029.13;6302890;28;20055;-72
2024/01/11 03:08:00;;;;;;;9.32;4.57;;;;;;;-6.03;100.00;103026.56;6304185;28;20052;-72
2024/01/11 03:11:03;;;;;;;13.38;5.00;;;;;;;-6.07;100.00;103038.31;6304947;28;20044;-72
2024/01/11 03:14:05;;;;;;;19.05;4.70;;;;;;;-6.02;100.00;103028.31;6304133;28;20071;-71
2024/01/11 03:17:06;;;;;;;19.70;7.05;;;;;;;-6.03;100.00;103024.88;6304200;28;20048;-72
2024/01/11 03:20:09;;;;;;;11.40;5.70;;;;;;;-6.03;100.00;103017.19;6304640;28;20044;-72
2024/01/11 03:23:10;;;;;;;19.73;7.32;;;;;;;-6.01;100.00;103028.38;6303945;28;20056;-72
2024/01/11 03:26:17;;;;;;;16.58;5.43;;;;;;;-5.97;100.00;103031.97;6304136;28;20071;-72
2024/01/11 03:29:18;;;;;;;18.58;7.45;;;;;;;-5.88;100.00;103024.72;6302021;28;20071;-70
2024/01/11 03:32:20;;;;;;;20.00;8.00;;;;;;;-5.89;100.00;103030.66;6304161;28;20361;-71
2024/01/11 03:35:21;;;;;;;19.00;6.43;;;;;;;-5.90;100.00;103036.59;6303313;28;20460;-71
2024/01/11 03:38:23;;;;;;;12.60;6.10;;;;;;;-5.88;100.00;103042.66;6304188;28;20044;-71
2024/01/11 03:41:25;;;;;;;15.85;8.20;;;;;;;-5.82;100.00;103025.03;6303988;28;20055;-71
2024/01/11 03:44:27;;;;;;;19.55;6.55;;;;;;;-5.86;100.00;103005.19;6303334;28;20056;-72
2024/01/11 03:47:28;;;;;;;17.83;5.90;;;;;;;-5.90;100.00;103000.75;6303466;28;20044;-71
2024/01/11 03:50:29;;;;;;;16.60;5.40;;;;;;;-5.84;100.00;103012.97;6303682;28;20064;-71
2024/01/11 03:53:31;;;;;;;22.77;7.22;;;;;;;-5.83;100.00;103013.03;6303496;28;20075;-71
2024/01/11 03:56:33;;;;;;;14.32;6.75;;;;;;;-5.87;100.00;103009.44;6303504;28;20055;-71
2024/01/11 03:59:35;;;;;;;16.95;6.97;;;;;;;-5.92;100.00;102998.13;6303802;28;20361;-71
2024/01/11 04:02:36;;;;;;;15.13;6.85;;;;;;;-5.90;100.00;102991.38;6303401;28;20174;-71
2024/01/11 04:05:38;;;;;;;22.08;6.53;;;;;;;-5.93;100.00;102998.94;6303575;28;20048;-71
2024/01/11 04:08:39;;;;;;;17.27;6.20;;;;;;;-5.89;100.00;103002.50;6303625;28;20052;-71
2024/01/11 04:11:42;;;;;;;15.88;6.18;;;;;;;-5.85;100.00;103003.53;6303550;28;20465;-71
2024/01/11 04:14:43;;;;;;;16.98;5.90;;;;;;;-5.82;100.00;103006.22;6303295;28;20059;-71
2024/01/11 04:17:45;;;;;;;24.48;6.85;;;;;;;-5.87;100.00;102993.19;6302774;28;20071;-71
2024/01/11 04:20:46;;;;;;;18.80;6.45;;;;;;;-5.87;100.00;102998.31;6303308;28;20048;-71
2024/01/11 04:23:48;;;;;;;16.33;5.85;;;;;;;-5.94;100.00;102999.75;6302995;28;20049;-71
2024/01/11 04:26:50;;;;;;;13.82;5.40;;;;;;;-5.95;100.00;102989.41;6302982;28;20333;-72
2024/01/11 04:29:52;;;;;;;18.15;6.22;;;;;;;-6.12;100.00;102991.13;6303056;28;20045;-71
2024/01/11 04:32:53;;;;;;;16.92;6.10;;;;;;;-6.17;100.00;102990.03;6302936;28;20064;-70
2024/01/11 04:35:54;;;;;;;31.38;8.18;;;;;;;-6.07;100.00;102991.38;6302327;28;20052;-70
2024/01/11 04:38:56;;;;;;;13.98;6.10;;;;;;;-6.01;100.00;102989.09;6310707;28;20467;-73
2024/01/11 04:42:00;;;;;;;14.80;4.80;;;;;;;-5.98;100.00;102997.84;6313912;28;20058;-71
2024/01/11 04:45:02;;;;;;;23.90;7.13;;;;;;;-5.98;100.00;103013.19;6322832;28;20121;-72
2024/01/11 04:48:04;;;;;;;13.15;6.38;;;;;;;-5.94;100.00;103019.34;6317038;28;20345;-71
2024/01/11 04:51:05;;;;;;;18.23;6.50;;;;;;;-6.01;100.00;103045.41;6302454;28;20044;-71
2024/01/11 04:54:06;;;;;;;16.80;5.70;;;;;;;-6.11;100.00;103048.31;6301533;28;20048;-71
2024/01/11 04:57:09;;;;;;;16.48;5.55;;;;;;;-6.07;100.00;103051.09;6302550;28;20056;-72
2024/01/11 05:00:11;;;;;;;16.58;5.03;;;;;;;-6.09;100.00;103067.16;6301847;28;20116;-71
2024/01/11 05:03:13;;;;;;;21.48;9.82;;;;;;;-6.09;100.00;103074.84;6301912;28;20044;-71
2024/01/11 05:06:18;;;;;;;23.35;8.23;;;;;;;-6.09;100.00;103072.28;6301550;28;20045;-71
2024/01/11 05:09:19;;;;;;;12.93;6.95;;;;;;;-6.06;100.00;103057.97;6302081;28;20059;-71
2024/01/11 05:12:22;;;;;;;10.15;6.00;;;;;;;-5.96;100.00;103059.31;6301307;28;20729;-71
2024/01/11 05:15:23;;;;;;;28.60;7.90;;;;;;;-5.98;100.00;103061.81;6300599;28;20079;-71
2024/01/11 05:18:25;;;;;;;21.05;7.25;;;;;;;-5.92;100.00;103061.25;6301550;28;20045;-71
2024/01/11 05:21:26;;;;;;;12.93;6.25;;;;;;;-5.94;100.00;103052.63;6301546;28;20044;-71
2024/01/11 05:24:28;;;;;;;26.13;8.45;;;;;;;-5.92;100.00;103053.56;6301252;28;20040;-71
2024/01/11 05:27:30;;;;;;;18.60;7.35;;;;;;;-5.93;100.00;103051.81;6300316;28;20040;-71
2024/01/11 05:30:32;;;;;;;13.90;6.07;;;;;;;-5.93;100.00;103044.13;6300746;28;20040;-72
2024/01/11 05:33:33;;;;;;;32.40;8.60;;;;;;;-6.08;100.00;103023.75;6300709;28;20044;-71
2024/01/11 05:36:35;;;;;;;22.33;8.18;;;;;;;-6.06;100.00;103014.47;6300223;28;20047;-71
2024/01/11 05:39:36;;;;;;;18.80;7.25;;;;;;;-5.94;100.00;103020.22;6300797;28;20064;-71
2024/01/11 05:42:39;;;;;;;19.52;7.82;;;;;;;-5.94;100.00;103022.78;6300372;28;20629;-71
2024/01/11 05:45:40;;;;;;;17.13;6.93;;;;;;;-5.83;100.00;103022.41;6300299;28;20053;-71
2024/01/11 05:48:43;;;;;;;20.70;7.13;;;;;;;-5.82;100.00;103007.09;6301176;28;20048;-71
2024/01/11 05:51:44;;;;;;;17.35;7.60;;;;;;;-5.80;100.00;102999.53;6301287;28;20045;-71
2024/01/11 05:54:47;;;;;;;18.75;6.65;;;;;;;-5.95;100.00;103018.47;6300653;28;20059;-72
2024/01/11 05:57:49;;;;;;;25.83;7.85;;;;;;;-5.90;100.00;103008.44;6300603;28;20067;-71
2024/01/11 06:00:51;;;;;;;19.23;7.20;;;;;;;-5.89;100.00;103023.84;6300970;28;20048;-71
2024/01/11 06:03:52;;;;;;;22.65;5.93;;;;;;;-5.79;100.00;103037.13;6300515;28;20057;-71
2024/01/11 06:06:53;;;;;;;13.05;6.85;;;;;;;-5.74;100.00;103031.41;6300332;28;20079;-71
2024/01/11 06:09:55;;;;;;;22.60;7.45;;;;;;;-5.69;100.00;103032.53;6300550;28;20345;-71
2024/01/11 06:12:57;;;;;;;21.50;7.47;;;;;;;-5.62;100.00;103016.69;6300346;28;20570;-71
2024/01/11 06:15:59;;;;;;;24.92;10.77;;;;;;;-5.55;100.00;103002.47;6300193;28;20060;-70
2024/01/11 06:19:00;;;;;;;20.20;6.47;;;;;;;-5.48;100.00;103017.34;6300749;28;20436;-70
2024/01/11 06:22:01;;;;;;;26.50;9.10;;;;;;;-5.39;100.00;103009.25;6300335;28;20049;-70
2024/01/11 06:25:03;;;;;;;24.45;10.48;;;;;;;-5.81;100.00;103023.34;6300247;28;20055;-70
2024/01/11 06:28:09;;;;;;;31.13;11.13;;;;;;;-6.02;100.00;103026.63;6302075;28;20113;-70
2024/01/11 06:31:11;;;;;;;31.77;9.90;;;;;;;-5.93;100.00;103021.97;6300068;28;20041;-71
2024/01/11 06:34:13;;;;;;;27.63;10.65;;;;;;;-5.81;100.00;103026.81;6304814;28;20061;-71
2024/01/11 06:37:14;;;;;;;25.10;9.43;;;;;;;-5.80;100.00;103022.56;6298309;28;20052;-70
2024/01/11 06:40:16;;;;;;;19.90;7.07;;;;;;;-5.64;100.00;103025.06;6304886;28;20349;-71
2024/01/11 06:43:18;;;;;;;28.15;10.20;;;;;;;-6.01;100.00;103037.75;6303580;28;20048;-71
2024/01/11 06:46:21;;;;;;;31.30;9.20;;;;;;;-6.21;100.00;103039.28;6299475;28;20326;-70
2024/01/11 06:49:23;;;;;;;24.83;10.00;;;;;;;-6.35;100.00;103053.03;6297989;28;20045;-71
2024/01/11 06:52:25;;;;;;;29.40;9.35;;;;;;;-6.38;100.00;103056.28;6300168;28;20052;-70
2024/01/11 06:55:26;;;;;;;27.95;10.60;;;;;;;-6.41;100.00;103061.22;6300131;28;20098;-71
2024/01/11 06:58:29;;;;;;;35.08;9.98;;;;;;;-6.23;100.00;103069.88;6300358;28;20059;-71
2024/01/11 07:01:30;;;;;;;27.20;9.77;;;;;;;-6.32;100.00;103073.63;6299528;28;20049;-71
2024/01/11 07:04:31;;;;;;;25.98;9.45;;;;;;;-6.06;100.00;103072.47;6312908;28;20064;-71
2024/01/11 07:07:33;;;;;;;26.27;11.18;;;;;;;-6.16;100.00;103071.09;6309816;28;20053;-71
2024/01/11 07:10:35;;;;;;;27.60;9.95;;;;;;;-6.04;100.00;103075.97;6315725;28;20396;-71
2024/01/11 07:13:37;;;;;;;34.53;11.35;;;;;;;-6.02;100.00;103075.25;6324817;28;20055;-72
2024/01/11 07:16:39;;;;;;;39.35;9.90;;;;;;;-5.84;100.00;103075.28;6323916;28;20059;-71
2024/01/11 07:19:40;;;;;;;40.97;12.63;;;;;;;-5.75;100.00;103069.75;6308425;28;20051;-71
2024/01/11 07:22:41;;;;;;;32.70;10.77;;;;;;;-5.61;100.00;103061.09;6312417;28;20049;-71
2024/01/11 07:25:43;;;;;;;27.55;11.80;;;;;;;-5.57;100.00;103059.56;6298825;28;20357;-71
2024/01/11 07:28:46;;;;;;;38.08;12.93;;;;;;;-5.56;100.00;103048.50;6299052;28;20049;-71
2024/01/11 07:31:47;;;;;;;38.65;11.40;;;;;;;-5.69;100.00;103060.69;6299298;28;20040;-72
2024/01/11 07:34:48;;;;;;;30.15;11.82;;;;;;;-5.74;100.00;103044.22;6298747;28;20044;-71
2024/01/11 07:37:50;;;;;;;35.83;12.30;;;;;;;-5.66;100.00;103030.13;6294724;28;20052;-72
2024/01/11 07:40:51;;;;;;;22.10;11.63;;;;;;;-5.76;100.00;103027.03;6301011;28;20123;-71
2024/01/11 07:43:58;;;;;;;33.30;12.35;;;;;;;-5.61;100.00;103036.34;6308395;28;20353;-71
2024/01/11 07:46:59;;;;;;;32.05;12.30;;;;;;;-5.52;100.00;103048.75;6307147;28;20101;-71
2024/01/11 07:50:01;;;;;;;44.22;11.57;;;;;;;-5.65;100.00;103054.06;6309583;28;20053;-71
2024/01/11 07:53:02;;;;;;;23.63;9.85;;;;;;;-5.49;100.00;103056.59;6303162;28;20356;-70
2024/01/11 07:56:04;;;;;;;41.40;11.93;;;;;;;-5.46;100.00;103051.59;6306425;28;20347;-71
2024/01/11 07:59:07;;;;;;;30.48;12.23;;;;;;;-5.40;100.00;103041.66;6311674;28;20337;-71
2024/01/11 08:02:08;;;;;;;36.05;13.40;;;;;;;-5.28;100.00;103045.63;6303108;28;20059;-71
2024/01/11 08:05:10;;;;;;;28.42;11.40;;;;;;;-5.22;100.00;103035.69;6303169;28;20469;-71
2024/01/11 08:08:11;;;;;;;28.95;10.65;;;;;;;-5.20;100.00;103029.81;6303253;28;20329;-71
2024/01/11 08:11:13;;;;;;;37.60;11.05;;;;;;;-5.31;100.00;103038.69;6303603;28;20055;-72
2024/01/11 08:14:15;;;;;;;37.67;12.45;;;;;;;-5.44;100.00;103042.31;6303362;28;20126;-71
2024/01/11 08:17:17;;;;;;;32.55;12.73;;;;;;;-5.39;100.00;103057.91;6303034;28;20052;-72
2024/01/11 08:20:19;;;;;;;37.13;12.00;;;;;;;-5.33;100.00;103057.34;6303319;28;20048;-71
2024/01/11 08:23:20;;;;;;;36.35;11.70;;;;;;;-5.29;100.00;103052.44;6302825;28;20106;-72
2024/01/11 08:26:22;;;;;;;27.20;9.90;;;;;;;-5.26;100.00;103042.34;6301311;28;20074;-72
2024/01/11 08:29:25;;;;;;;37.67;12.43;;;;;;;-5.28;100.00;103036.25;6303113;28;20444;-72
2024/01/11 08:32:26;;;;;;;42.78;14.05;;;;;;;-5.38;100.00;103049.41;6302605;28;20368;-71
2024/01/11 08:35:28;;;;;;;40.25;10.88;;;;;;;-5.21;100.00;103061.38;6307921;28;20071;-72
2024/01/11 08:38:29;;;;;;;31.88;10.63;;;;;;;-5.01;100.00;103069.13;6317328;28;20097;-72
2024/01/11 08:41:31;;;;;;;38.40;12.95;;;;;;;-4.91;100.00;103068.75;6318964;28;20352;-72
2024/01/11 08:44:33;;;;;;;33.92;10.75;;;;;;;-4.75;100.00;103073.81;6305294;28;20134;-71
2024/01/11 08:47:35;;;;;;;36.63;11.63;;;;;;;-4.76;100.00;103074.63;6299006;28;20056;-71
2024/01/11 08:50:37;;;;;;;36.13;11.82;;;;;;;-4.61;100.00;103072.78;6302035;28;20048;-72
2024/01/11 08:53:38;;;;;;;35.88;11.73;;;;;;;-4.54;100.00;103073.03;6332996;22;20098;-71
2024/01/11 08:56:41;;;;;;;31.40;10.90;;;;;;;-4.50;100.00;103075.81;6262025;28;20060;-71
2024/01/11 08:59:44;;;;;;;38.22;12.57;;;;;;;-4.49;100.00;103075.03;6228266;28;20046;-71
2024/01/11 09:02:45;;;;;;;30.13;11.15;;;;;;;-4.46;100.00;103070.03;6259956;28;20042;-71
2024/01/11 09:05:47;;;;;;;27.33;11.70;;;;;;;-4.38;100.00;103072.94;6250027;28;20112;-71
2024/01/11 09:08:48;;;;;;;37.22;11.80;;;;;;;-4.28;100.00;103082.81;6227629;28;20052;-71
2024/01/11 09:11:50;;;;;;;27.58;10.18;;;;;;;-4.34;100.00;103080.84;6226963;28;20049;-71
2024/01/11 09:14:52;;;;;;;36.15;12.75;;;;;;;-4.38;100.00;103072.94;6229815;28;20070;-70
2024/01/11 09:17:54;;;;;;;34.17;12.32;;;;;;;-4.27;100.00;103070.84;6227157;28;20046;-71
2024/01/11 09:20:56;;;;;;;40.10;12.80;;;;;;;-4.17;100.00;103058.50;6227357;28;20045;-71
2024/01/11 09:23:57;;;;;;;36.63;13.82;;;;;;;-4.17;100.00;103055.94;6226717;28;20049;-72
2024/01/11 09:26:58;;;;;;;42.92;11.57;;;;;;;-4.15;100.00;103056.00;6226543;28;20465;-72
2024/01/11 09:30:01;;;;;;;42.35;13.27;;;;;;;-4.22;100.00;103047.16;6227144;28;20045;-71
2024/01/11 09:33:04;;;;;;;41.22;14.10;;;;;;;-4.23;100.00;103042.81;6226724;28;20042;-72
2024/01/11 09:36:06;;;;;;;33.17;12.57;;;;;;;-4.11;100.00;103045.06;6223938;28;20054;-71
2024/01/11 09:39:08;;;;;;;27.98;9.98;;;;;;;-3.95;100.00;103046.59;6227239;28;20050;-71
2024/01/11 09:42:09;;;;;;;45.05;14.57;;;;;;;-3.86;100.00;103035.06;6226583;28;20046;-71
2024/01/11 09:45:15;;;;;;;36.70;12.63;;;;;;;-3.88;100.00;103036.66;6226275;28;20081;-71
2024/01/11 09:48:17;;;;;;;37.22;12.45;;;;;;;-3.85;100.00;103049.66;6236020;28;20354;-72
2024/01/11 09:51:19;;;;;;;27.73;11.32;;;;;;;-3.74;100.00;103041.50;6229785;28;20134;-71
2024/01/11 09:54:21;;;;;;;47.20;14.40;;;;;;;-3.65;100.00;103032.50;6226297;28;20362;-70
2024/01/11 09:57:27;;;;;;;32.35;12.18;;;;;;;-3.69;100.00;103032.31;6226243;28;20569;-71
2024/01/11 10:00:31;;;;;;;31.77;10.95;;;;;;;-3.57;100.00;103033.69;6241417;28;20051;-71
2024/01/11 10:03:33;;;;;;;36.80;9.20;;;;;;;-3.67;100.00;103038.41;6240792;28;20057;-71
2024/01/11 10:06:38;;;;;;;32.33;11.30;;;;;;;-3.78;100.00;103044.75;6226212;28;20046;-71
2024/01/11 10:09:40;;;;;;;39.53;12.63;;;;;;;-3.74;100.00;103037.25;6226202;28;20054;-71
2024/01/11 10:12:41;;;;;;;32.20;11.50;;;;;;;-3.68;100.00;103041.75;6225703;28;20057;-71
2024/01/11 10:15:44;;;;;;;41.90;11.23;;;;;;;-3.68;100.00;103045.22;6226548;28;20461;-71
2024/01/11 10:18:46;;;;;;;43.97;11.13;;;;;;;-3.45;100.00;103046.19;6235975;28;20057;-70
2024/01/11 10:21:47;;;;;;;35.83;12.25;;;;;;;-3.46;100.00;103044.41;6243159;28;20042;-71
2024/01/11 10:24:49;;;;;;;36.95;11.45;;;;;;;-3.50;100.00;103042.53;6250505;28;20064;-71
2024/01/11 10:27:50;;;;;;;36.10;11.65;;;;;;;-3.43;100.00;103039.41;6250643;28;20057;-73
2024/01/11 10:30:54;;;;;;;38.20;10.57;;;;;;;-3.37;100.00;103034.50;6250672;28;20061;-73
2024/01/11 10:33:55;;;;;;;41.88;11.70;;;;;;;-3.26;100.00;103032.38;6250415;28;20085;-70
2024/01/11 10:36:57;;;;;;;36.85;10.90;;;;;;;-3.15;100.00;103030.22;6226049;28;20045;-71
2024/01/11 10:39:59;;;;;;;29.80;10.00;;;;;;;-3.01;100.00;103033.34;6225851;28;20056;-73
2024/01/11 10:43:02;;;;;;;52.58;13.02;;;;;;;-3.05;100.00;103022.06;6225837;28;20053;-71
2024/01/11 10:46:07;;;;;;;48.30;14.15;;;;;;;-2.96;100.00;103035.28;6225231;28;20127;-71
2024/01/11 10:49:10;;;;;;;32.92;10.80;;;;;;;-3.03;100.00;103033.31;6233113;28;20427;-72
2024/01/11 10:52:13;;;;;;;41.38;11.30;;;;;;;-2.84;100.00;103038.34;6240811;28;20049;-72
2024/01/11 10:55:16;;;;;;;55.05;13.05;;;;;;;-2.74;100.00;103036.13;6242837;28;20046;-71
2024/01/11 10:58:20;;;;;;;54.80;13.25;;;;;;;-2.82;100.00;103035.81;6232995;28;20060;-71
2024/01/11 11:01:25;;;;;;;27.92;10.70;;;;;;;-2.83;100.00;103028.91;6225506;28;20050;-72
2024/01/11 11:04:27;;;;;;;40.72;12.07;;;;;;;-2.71;100.00;103029.41;6225515;28;20450;-74
2024/01/11 11:07:29;;;;;;;43.97;12.48;;;;;;;-2.55;100.00;103023.97;6231152;28;20128;-71
2024/01/11 11:10:32;;;;;;;47.33;14.07;;;;;;;-2.47;100.00;103018.25;6241757;28;20048;-71
2024/01/11 11:13:34;;;;;;;41.88;12.98;;;;;;;-2.40;100.00;103000.53;6250038;28;20056;-72
2024/01/11 11:16:37;;;;;;;49.33;13.80;;;;;;;-2.64;100.00;103012.47;6249993;28;20061;-72
2024/01/11 11:19:39;;;;;;;40.10;11.40;;;;;;;-2.50;100.00;103006.13;6250334;28;20057;-71
2024/01/11 11:22:42;;;;;;;38.50;13.57;;;;;;;-2.39;100.00;103004.84;6249778;28;20454;-71
2024/01/11 11:25:46;;;;;;;39.95;12.82;;;;;;;-2.20;100.00;102997.78;6238313;28;20068;-71
2024/01/11 11:28:48;;;;;;;31.23;11.43;;;;;;;-2.14;100.00;102998.84;6221654;28;20069;-72
2024/01/11 11:31:53;;;;;;;33.78;12.27;;;;;;;-2.14;100.00;102997.97;6230232;28;20124;-71
2024/01/11 11:34:55;;;;;;;41.92;13.13;;;;;;;-2.05;100.00;102993.16;6229950;28;20431;-71
2024/01/11 11:37:57;;;;;;;36.95;11.95;;;;;;;-2.04;100.00;102989.78;6229710;28;20058;-71
2024/01/11 11:41:01;;;;;;;49.92;12.25;;;;;;;-2.10;100.00;102976.66;6229760;28;20069;-71
2024/01/11 11:44:03;;;;;;;45.47;12.57;;;;;;;-2.22;100.00;102964.25;6229378;28;20053;-71
2024/01/11 11:47:23;;;;;;;48.17;13.73;;;;;;;-2.16;100.00;102972.19;6229039;28;20133;-72
2024/01/11 11:50:24;;;;;;;36.47;12.85;;;;;;;-2.22;100.00;102976.25;6227963;28;20057;-73
2024/01/11 11:53:26;;;;;;;38.58;13.85;;;;;;;-2.14;100.00;102982.53;6229519;28;20057;-71
2024/01/11 11:56:28;;;;;;;45.95;14.07;;;;;;;-2.13;100.00;102974.00;6244208;28;20464;-72
2024/01/11 11:59:30;;;;;;;48.17;14.38;;;;;;;-2.12;100.00;102965.44;6254384;28;20050;-71
2024/01/11 12:02:35;;;;;;;37.20;11.75;;;;;;;-2.14;100.00;102955.06;6253906;28;20075;-71
2024/01/11 12:05:39;;;;;;;47.03;14.35;;;;;;;-2.03;100.00;102958.03;6253863;28;20135;-73
2024/01/11 12:08:43;;;;;;;33.60;12.35;;;;;;;-2.11;100.00;102954.31;6253737;28;20131;-71
2024/01/11 12:11:45;;;;;;;42.72;13.65;;;;;;;-2.03;100.00;102946.84;6253950;28;20127;-71
2024/01/11 12:14:46;;;;;;;48.35;12.63;;;;;;;-1.94;100.00;102952.31;6251687;28;20159;-73
2024/01/11 12:17:49;;;;;;;34.20;11.77;;;;;;;-1.93;100.00;102944.63;6249251;28;20076;-71
2024/01/11 12:20:53;;;;;;;39.60;12.90;;;;;;;-1.95;100.00;102950.53;6231042;28;20054;-73
2024/01/11 12:23:55;;;;;;;42.72;12.00;;;;;;;-1.85;100.00;102950.06;6237495;28;20135;-73
2024/01/11 12:26:57;;;;;;;44.47;13.20;;;;;;;-1.80;100.00;102953.66;6232036;28;20049;-72
2024/01/11 12:29:58;;;;;;;41.47;13.00;;;;;;;-1.89;100.00;102961.94;6228531;28;20104;-73
2024/01/11 12:33:02;;;;;;;45.25;13.55;;;;;;;-1.77;100.00;102958.91;6228597;28;20046;-72
2024/01/11 12:36:06;;;;;;;37.28;11.55;;;;;;;-1.72;100.00;102961.66;6236330;28;20052;-73
2024/01/11 12:39:08;;;;;;;43.17;13.65;;;;;;;-1.88;100.00;102952.50;6248197;28;20060;-71
2024/01/11 12:42:10;;;;;;;43.65;12.27;;;;;;;-1.82;100.00;102958.75;6235961;28;20069;-73
2024/01/11 12:45:12;;;;;;;46.40;13.65;;;;;;;-1.79;100.00;102968.28;6227376;28;21188;-70
2024/01/11 12:48:16;;;;;;;39.40;13.35;;;;;;;-1.71;100.00;102963.38;6225407;28;20053;-71
2024/01/11 12:51:18;;;;;;;41.55;13.95;;;;;;;-1.69;100.00;102960.03;6228021;28;20049;-72
2024/01/11 12:54:20;;;;;;;43.25;13.85;;;;;;;-1.69;100.00;102951.41;6227372;28;20050;-71
2024/01/11 12:57:22;;;;;;;46.03;11.77;;;;;;;-1.79;100.00;102942.50;6229351;28;20053;-70
2024/01/11 13:00:24;;;;;;;45.75;13.93;;;;;;;-1.77;100.00;102935.72;6227745;28;20096;-71
2024/01/11 13:03:27;;;;;;;41.67;14.63;;;;;;;-1.70;100.00;102926.47;6227614;28;20155;-71
2024/01/11 13:06:29;;;;;;;46.55;12.05;;;;;;;-1.77;100.00;102919.34;6227584;28;20057;-73
2024/01/11 13:09:31;;;;;;;44.92;14.23;;;;;;;-1.76;100.00;102916.84;6228935;28;20390;-73
2024/01/11 13:12:33;;;;;;;32.78;10.70;;;;;;;-1.79;100.00;102902.16;6224688;28;20054;-73
2024/01/11 13:15:34;;;;;;;51.78;14.25;;;;;;;-1.70;100.00;102908.44;6227404;28;20340;-73
2024/01/11 13:18:38;;;;;;;41.17;14.25;;;;;;;-1.71;100.00;102910.13;6228031;28;20050;-73
2024/01/11 13:21:40;;;;;;;38.03;13.15;;;;;;;-1.57;100.00;102903.72;6234424;28;20056;-74
2024/01/11 13:24:41;;;;;;;48.85;13.60;;;;;;;-1.58;100.00;102896.81;6243817;28;20046;-72
2024/01/11 13:27:42;;;;;;;45.03;13.15;;;;;;;-1.53;100.00;102899.53;6245005;28;20057;-73
2024/01/11 13:30:45;;;;;;;46.58;12.98;;;;;;;-1.45;100.00;102915.22;6244002;28;20060;-72
2024/01/11 13:33:48;;;;;;;42.30;12.15;;;;;;;-1.46;100.00;102908.31;6251680;28;20434;-70
2024/01/11 13:36:50;;;;;;;39.92;13.40;;;;;;;-1.49;100.00;102898.81;6245187;28;20060;-72
2024/01/11 13:39:51;;;;;;;51.50;12.68;;;;;;;-1.47;100.00;102899.72;6235427;28;20049;-70
2024/01/11 13:42:53;;;;;;;42.75;13.10;;;;;;;-1.51;100.00;102903.03;6233572;28;20045;-71